sensor_id;sensor_type;location;lat;lon;timestamp;temperature;humidity
148;DHT22;142;50.652;12.216;2023-05-10T00:02:08;11.90;58.30
148;DHT22;142;50.652;12.216;2023-05-10T00:04:35;11.80;58.70
148;DHT22;142;50.652;12.216;2023-05-10T00:07:02;11.80;57.90
148;DHT22;142;50.652;12.216;2023-05-10T00:09:29;11.80;57.50
148;DHT22;142;50.652;12.216;2023-05-10T00:11:56;11.90;57.00
148;DHT22;142;50.652;12.216;2023-05-10T00:14:24;11.90;57.00
148;DHT22;142;50.652;12.216;2023-05-10T00:16:51;11.90;56.90
148;DHT22;142;50.652;12.216;2023-05-10T00:19:19;11.90;57.40
148;DHT22;142;50.652;12.216;2023-05-10T00:21:47;11.90;57.60
148;DHT22;142;50.652;12.216;2023-05-10T00:24:14;11.90;58.20
148;DHT22;142;50.652;12.216;2023-05-10T00:26:41;11.90;58.50
148;DHT22;142;50.652;12.216;2023-05-10T00:29:09;11.90;58.70
148;DHT22;142;50.652;12.216;2023-05-10T00:31:36;11.90;57.00
148;DHT22;142;50.652;12.216;2023-05-10T00:34:03;11.90;57.80
148;DHT22;142;50.652;12.216;2023-05-10T00:36:32;11.90;58.00
148;DHT22;142;50.652;12.216;2023-05-10T00:38:58;11.80;57.80
148;DHT22;142;50.652;12.216;2023-05-10T00:41:26;11.90;55.80
148;DHT22;142;50.652;12.216;2023-05-10T00:43:53;11.90;55.60
148;DHT22;142;50.652;12.216;2023-05-10T00:46:20;11.90;55.30
148;DHT22;142;50.652;12.216;2023-05-10T00:48:48;11.90;55.60
148;DHT22;142;50.652;12.216;2023-05-10T00:51:16;12.00;56.00
148;DHT22;142;50.652;12.216;2023-05-10T00:53:46;12.00;56.20
148;DHT22;142;50.652;12.216;2023-05-10T00:56:13;12.10;56.70
148;DHT22;142;50.652;12.216;2023-05-10T00:58:41;12.10;57.60
148;DHT22;142;50.652;12.216;2023-05-10T01:01:08;12.00;57.40
148;DHT22;142;50.652;12.216;2023-05-10T01:03:36;12.00;56.90
148;DHT22;142;50.652;12.216;2023-05-10T01:06:04;11.90;56.80
148;DHT22;142;50.652;12.216;2023-05-10T01:08:32;11.90;55.70
148;DHT22;142;50.652;12.216;2023-05-10T01:11:00;11.90;55.80
148;DHT22;142;50.652;12.216;2023-05-10T01:13:32;11.90;55.60
148;DHT22;142;50.652;12.216;2023-05-10T01:15:59;11.90;55.30
148;DHT22;142;50.652;12.216;2023-05-10T01:18:29;11.80;55.50
148;DHT22;142;50.652;12.216;2023-05-10T01:21:04;11.80;54.80
148;DHT22;142;50.652;12.216;2023-05-10T01:26:39;11.80;53.20
148;DHT22;142;50.652;12.216;2023-05-10T01:29:30;11.80;53.60
148;DHT22;142;50.652;12.216;2023-05-10T01:32:16;11.80;52.20
148;DHT22;142;50.652;12.216;2023-05-10T01:34:59;11.80;51.50
148;DHT22;142;50.652;12.216;2023-05-10T01:37:33;11.70;50.20
148;DHT22;142;50.652;12.216;2023-05-10T01:40:08;11.70;48.10
148;DHT22;142;50.652;12.216;2023-05-10T01:42:42;11.70;46.40
148;DHT22;142;50.652;12.216;2023-05-10T01:45:18;11.70;45.30
148;DHT22;142;50.652;12.216;2023-05-10T01:47:52;11.70;44.70
148;DHT22;142;50.652;12.216;2023-05-10T01:50:24;11.70;44.70
148;DHT22;142;50.652;12.216;2023-05-10T01:52:57;11.70;44.20
148;DHT22;142;50.652;12.216;2023-05-10T01:55:27;11.70;44.90
148;DHT22;142;50.652;12.216;2023-05-10T01:58:02;11.70;44.80
148;DHT22;142;50.652;12.216;2023-05-10T02:00:29;11.60;44.40
148;DHT22;142;50.652;12.216;2023-05-10T02:03:00;11.60;44.60
148;DHT22;142;50.652;12.216;2023-05-10T02:05:30;11.60;44.80
148;DHT22;142;50.652;12.216;2023-05-10T02:08:00;11.60;44.40
148;DHT22;142;50.652;12.216;2023-05-10T02:10:28;11.60;43.80
148;DHT22;142;50.652;12.216;2023-05-10T02:12:58;11.70;44.00
148;DHT22;142;50.652;12.216;2023-05-10T02:15:26;11.70;45.20
148;DHT22;142;50.652;12.216;2023-05-10T02:17:55;11.60;44.90
148;DHT22;142;50.652;12.216;2023-05-10T02:20:27;11.70;44.70
148;DHT22;142;50.652;12.216;2023-05-10T02:22:56;11.60;45.90
148;DHT22;142;50.652;12.216;2023-05-10T02:25:25;11.60;45.40
148;DHT22;142;50.652;12.216;2023-05-10T02:27:54;11.60;45.30
148;DHT22;142;50.652;12.216;2023-05-10T02:30:22;11.60;45.50
148;DHT22;142;50.652;12.216;2023-05-10T02:32:51;11.60;44.90
148;DHT22;142;50.652;12.216;2023-05-10T02:35:19;11.60;45.00
148;DHT22;142;50.652;12.216;2023-05-10T02:37:47;11.60;44.70
148;DHT22;142;50.652;12.216;2023-05-10T02:40:16;11.60;44.60
148;DHT22;142;50.652;12.216;2023-05-10T02:42:44;11.60;45.00
148;DHT22;142;50.652;12.216;2023-05-10T02:45:15;11.60;44.70
148;DHT22;142;50.652;12.216;2023-05-10T02:47:43;11.70;44.50
148;DHT22;142;50.652;12.216;2023-05-10T02:50:11;11.70;43.80
148;DHT22;142;50.652;12.216;2023-05-10T02:52:40;11.70;43.80
148;DHT22;142;50.652;12.216;2023-05-10T02:55:13;11.70;43.80
148;DHT22;142;50.652;12.216;2023-05-10T02:57:46;11.70;44.00
148;DHT22;142;50.652;12.216;2023-05-10T03:00:15;11.60;43.60
148;DHT22;142;50.652;12.216;2023-05-10T03:02:42;11.70;41.90
148;DHT22;142;50.652;12.216;2023-05-10T03:05:09;11.70;41.60
148;DHT22;142;50.652;12.216;2023-05-10T03:07:36;11.70;41.90
148;DHT22;142;50.652;12.216;2023-05-10T03:10:05;11.80;41.40
148;DHT22;142;50.652;12.216;2023-05-10T03:12:51;11.80;41.60
148;DHT22;142;50.652;12.216;2023-05-10T03:15:28;11.80;41.50
148;DHT22;142;50.652;12.216;2023-05-10T03:18:03;11.80;41.40
148;DHT22;142;50.652;12.216;2023-05-10T03:20:36;11.80;41.20
148;DHT22;142;50.652;12.216;2023-05-10T03:23:11;11.80;40.50
148;DHT22;142;50.652;12.216;2023-05-10T03:25:40;11.80;40.40
148;DHT22;142;50.652;12.216;2023-05-10T03:28:11;11.90;39.10
148;DHT22;142;50.652;12.216;2023-05-10T03:30:39;11.90;39.40
148;DHT22;142;50.652;12.216;2023-05-10T03:33:07;11.80;38.70
148;DHT22;142;50.652;12.216;2023-05-10T03:35:34;11.80;37.30
148;DHT22;142;50.652;12.216;2023-05-10T03:38:01;11.80;35.80
148;DHT22;142;50.652;12.216;2023-05-10T03:40:30;11.90;35.20
148;DHT22;142;50.652;12.216;2023-05-10T03:42:58;11.90;34.30
148;DHT22;142;50.652;12.216;2023-05-10T03:45:27;11.90;34.30
148;DHT22;142;50.652;12.216;2023-05-10T03:47:54;11.90;34.00
148;DHT22;142;50.652;12.216;2023-05-10T03:50:22;11.90;34.30
148;DHT22;142;50.652;12.216;2023-05-10T03:52:49;11.90;34.50
148;DHT22;142;50.652;12.216;2023-05-10T03:55:16;11.90;34.10
148;DHT22;142;50.652;12.216;2023-05-10T03:57:43;12.00;34.30
148;DHT22;142;50.652;12.216;2023-05-10T04:00:11;12.10;34.30
148;DHT22;142;50.652;12.216;2023-05-10T04:02:40;12.10;35.50
148;DHT22;142;50.652;12.216;2023-05-10T04:05:08;12.20;35.10
148;DHT22;142;50.652;12.216;2023-05-10T04:07:35;12.30;36.00
148;DHT22;142;50.652;12.216;2023-05-10T04:10:03;12.40;37.30
148;DHT22;142;50.652;12.216;2023-05-10T04:12:30;12.50;38.20
148;DHT22;142;50.652;12.216;2023-05-10T04:14:57;12.50;39.10
148;DHT22;142;50.652;12.216;2023-05-10T04:17:24;12.60;40.60
148;DHT22;142;50.652;12.216;2023-05-10T04:19:53;12.60;43.00
148;DHT22;142;50.652;12.216;2023-05-10T04:22:21;12.70;42.70
148;DHT22;142;50.652;12.216;2023-05-10T04:24:48;12.80;43.90
148;DHT22;142;50.652;12.216;2023-05-10T04:27:15;12.80;44.90
148;DHT22;142;50.652;12.216;2023-05-10T04:29:43;12.90;46.30
148;DHT22;142;50.652;12.216;2023-05-10T04:32:10;13.00;46.40
148;DHT22;142;50.652;12.216;2023-05-10T04:34:37;13.10;47.20
148;DHT22;142;50.652;12.216;2023-05-10T04:37:05;13.10;48.70
148;DHT22;142;50.652;12.216;2023-05-10T04:39:33;13.20;48.80
148;DHT22;142;50.652;12.216;2023-05-10T04:42:00;13.20;49.30
148;DHT22;142;50.652;12.216;2023-05-10T04:44:29;13.20;49.90
148;DHT22;142;50.652;12.216;2023-05-10T04:46:57;13.30;49.10
148;DHT22;142;50.652;12.216;2023-05-10T04:49:24;13.40;49.80
148;DHT22;142;50.652;12.216;2023-05-10T04:51:51;13.50;50.00
148;DHT22;142;50.652;12.216;2023-05-10T04:54:19;13.50;50.10
148;DHT22;142;50.652;12.216;2023-05-10T04:56:47;13.50;50.50
148;DHT22;142;50.652;12.216;2023-05-10T04:59:14;13.60;51.50
148;DHT22;142;50.652;12.216;2023-05-10T05:01:41;13.70;51.30
148;DHT22;142;50.652;12.216;2023-05-10T05:04:08;13.80;50.40
148;DHT22;142;50.652;12.216;2023-05-10T05:06:37;13.90;52.30
148;DHT22;142;50.652;12.216;2023-05-10T05:09:04;13.90;55.30
148;DHT22;142;50.652;12.216;2023-05-10T05:11:33;13.90;56.50
148;DHT22;142;50.652;12.216;2023-05-10T05:14:00;14.00;58.40
148;DHT22;142;50.652;12.216;2023-05-10T05:16:30;14.10;60.20
148;DHT22;142;50.652;12.216;2023-05-10T05:18:57;14.20;62.90
148;DHT22;142;50.652;12.216;2023-05-10T05:21:24;14.30;66.30
148;DHT22;142;50.652;12.216;2023-05-10T05:23:52;14.40;66.40
148;DHT22;142;50.652;12.216;2023-05-10T05:26:19;14.60;66.80
148;DHT22;142;50.652;12.216;2023-05-10T05:28:48;14.80;68.50
148;DHT22;142;50.652;12.216;2023-05-10T05:31:18;14.90;70.60
148;DHT22;142;50.652;12.216;2023-05-10T05:33:45;15.10;73.80
148;DHT22;142;50.652;12.216;2023-05-10T05:36:12;15.20;76.60
148;DHT22;142;50.652;12.216;2023-05-10T05:38:39;15.20;79.60
148;DHT22;142;50.652;12.216;2023-05-10T05:41:07;15.20;78.30
148;DHT22;142;50.652;12.216;2023-05-10T05:43:34;15.20;78.40
148;DHT22;142;50.652;12.216;2023-05-10T05:46:02;15.10;80.60
148;DHT22;142;50.652;12.216;2023-05-10T05:48:30;15.10;82.10
148;DHT22;142;50.652;12.216;2023-05-10T05:50:57;15.10;82.10
148;DHT22;142;50.652;12.216;2023-05-10T05:53:24;15.20;82.80
148;DHT22;142;50.652;12.216;2023-05-10T05:55:52;15.10;83.30
148;DHT22;142;50.652;12.216;2023-05-10T05:58:21;15.10;81.90
148;DHT22;142;50.652;12.216;2023-05-10T06:00:48;15.10;81.70
148;DHT22;142;50.652;12.216;2023-05-10T06:03:18;15.10;80.90
148;DHT22;142;50.652;12.216;2023-05-10T06:05:45;15.10;79.20
148;DHT22;142;50.652;12.216;2023-05-10T06:08:15;15.10;79.50
148;DHT22;142;50.652;12.216;2023-05-10T06:10:43;15.10;79.90
148;DHT22;142;50.652;12.216;2023-05-10T06:13:10;15.10;79.00
148;DHT22;142;50.652;12.216;2023-05-10T06:15:38;15.00;79.10
148;DHT22;142;50.652;12.216;2023-05-10T06:18:05;15.10;80.00
148;DHT22;142;50.652;12.216;2023-05-10T06:20:34;15.10;80.00
148;DHT22;142;50.652;12.216;2023-05-10T06:23:02;15.20;81.20
148;DHT22;142;50.652;12.216;2023-05-10T06:25:29;15.20;82.30
148;DHT22;142;50.652;12.216;2023-05-10T06:27:56;15.40;82.70
148;DHT22;142;50.652;12.216;2023-05-10T06:30:24;15.40;83.40
148;DHT22;142;50.652;12.216;2023-05-10T06:32:53;15.50;84.80
148;DHT22;142;50.652;12.216;2023-05-10T06:35:21;15.60;85.40
148;DHT22;142;50.652;12.216;2023-05-10T06:37:50;15.60;85.90
148;DHT22;142;50.652;12.216;2023-05-10T06:40:17;15.50;86.20
148;DHT22;142;50.652;12.216;2023-05-10T06:42:45;15.40;86.50
148;DHT22;142;50.652;12.216;2023-05-10T06:45:12;15.30;86.60
148;DHT22;142;50.652;12.216;2023-05-10T06:47:40;15.30;86.20
148;DHT22;142;50.652;12.216;2023-05-10T06:50:08;15.30;85.50
148;DHT22;142;50.652;12.216;2023-05-10T06:52:35;15.20;85.40
148;DHT22;142;50.652;12.216;2023-05-10T06:55:06;15.10;83.90
148;DHT22;142;50.652;12.216;2023-05-10T06:57:34;15.00;82.20
148;DHT22;142;50.652;12.216;2023-05-10T07:00:02;14.80;77.70
148;DHT22;142;50.652;12.216;2023-05-10T07:02:36;14.70;72.00
148;DHT22;142;50.652;12.216;2023-05-10T07:05:03;14.60;66.10
148;DHT22;142;50.652;12.216;2023-05-10T07:07:34;14.60;62.50
148;DHT22;142;50.652;12.216;2023-05-10T07:10:05;14.50;57.10
148;DHT22;142;50.652;12.216;2023-05-10T07:12:33;14.50;52.90
148;DHT22;142;50.652;12.216;2023-05-10T07:15:02;14.30;49.70
148;DHT22;142;50.652;12.216;2023-05-10T07:17:30;14.20;42.50
148;DHT22;142;50.652;12.216;2023-05-10T07:19:58;14.10;40.40
148;DHT22;142;50.652;12.216;2023-05-10T07:22:25;13.90;38.60
148;DHT22;142;50.652;12.216;2023-05-10T07:24:53;13.80;32.10
148;DHT22;142;50.652;12.216;2023-05-10T07:27:22;13.80;27.60
148;DHT22;142;50.652;12.216;2023-05-10T07:29:49;13.90;20.80
148;DHT22;142;50.652;12.216;2023-05-10T07:32:17;13.90;18.60
148;DHT22;142;50.652;12.216;2023-05-10T07:34:44;14.00;17.90
148;DHT22;142;50.652;12.216;2023-05-10T07:37:11;14.10;17.70
148;DHT22;142;50.652;12.216;2023-05-10T07:39:39;14.20;17.60
148;DHT22;142;50.652;12.216;2023-05-10T07:42:07;14.30;17.30
148;DHT22;142;50.652;12.216;2023-05-10T07:44:36;14.20;17.20
148;DHT22;142;50.652;12.216;2023-05-10T07:47:04;14.30;17.30
148;DHT22;142;50.652;12.216;2023-05-10T07:49:31;14.20;17.20
148;DHT22;142;50.652;12.216;2023-05-10T07:51:58;14.40;17.40
148;DHT22;142;50.652;12.216;2023-05-10T07:54:25;14.50;17.40
148;DHT22;142;50.652;12.216;2023-05-10T07:56:53;14.60;17.10
148;DHT22;142;50.652;12.216;2023-05-10T07:59:21;14.70;17.00
148;DHT22;142;50.652;12.216;2023-05-10T08:01:49;14.80;17.20
148;DHT22;142;50.652;12.216;2023-05-10T08:04:16;14.70;16.80
148;DHT22;142;50.652;12.216;2023-05-10T08:06:43;14.60;16.50
148;DHT22;142;50.652;12.216;2023-05-10T08:09:10;14.80;16.80
148;DHT22;142;50.652;12.216;2023-05-10T08:11:38;14.70;16.60
148;DHT22;142;50.652;12.216;2023-05-10T08:14:05;14.80;16.70
148;DHT22;142;50.652;12.216;2023-05-10T08:16:32;14.70;16.40
148;DHT22;142;50.652;12.216;2023-05-10T08:19:01;14.70;16.50
148;DHT22;142;50.652;12.216;2023-05-10T08:21:29;14.80;16.80
148;DHT22;142;50.652;12.216;2023-05-10T08:23:56;14.80;16.90
148;DHT22;142;50.652;12.216;2023-05-10T08:26:24;14.70;16.70
148;DHT22;142;50.652;12.216;2023-05-10T08:28:51;14.80;17.00
148;DHT22;142;50.652;12.216;2023-05-10T08:31:18;14.80;16.90
148;DHT22;142;50.652;12.216;2023-05-10T08:33:45;14.80;17.00
148;DHT22;142;50.652;12.216;2023-05-10T08:36:14;14.80;17.10
148;DHT22;142;50.652;12.216;2023-05-10T08:38:45;14.90;17.30
148;DHT22;142;50.652;12.216;2023-05-10T08:41:12;14.80;17.30
148;DHT22;142;50.652;12.216;2023-05-10T08:43:40;14.80;17.30
148;DHT22;142;50.652;12.216;2023-05-10T08:46:13;14.70;17.10
148;DHT22;142;50.652;12.216;2023-05-10T08:48:43;14.70;17.50
148;DHT22;142;50.652;12.216;2023-05-10T08:51:14;14.60;17.60
148;DHT22;142;50.652;12.216;2023-05-10T08:53:42;14.60;17.60
148;DHT22;142;50.652;12.216;2023-05-10T08:56:09;14.60;17.60
148;DHT22;142;50.652;12.216;2023-05-10T08:58:37;14.50;17.80
148;DHT22;142;50.652;12.216;2023-05-10T09:01:05;14.40;17.80
148;DHT22;142;50.652;12.216;2023-05-10T09:03:32;14.50;18.00
148;DHT22;142;50.652;12.216;2023-05-10T09:05:59;14.60;17.80
148;DHT22;142;50.652;12.216;2023-05-10T09:08:27;14.70;18.00
148;DHT22;142;50.652;12.216;2023-05-10T09:10:56;14.80;17.70
148;DHT22;142;50.652;12.216;2023-05-10T09:13:24;14.90;17.70
148;DHT22;142;50.652;12.216;2023-05-10T09:15:53;15.00;17.50
148;DHT22;142;50.652;12.216;2023-05-10T09:18:20;15.00;17.40
148;DHT22;142;50.652;12.216;2023-05-10T09:20:48;15.10;17.70
148;DHT22;142;50.652;12.216;2023-05-10T09:23:16;15.20;17.60
148;DHT22;142;50.652;12.216;2023-05-10T09:25:44;15.30;17.40
148;DHT22;142;50.652;12.216;2023-05-10T09:28:11;15.20;16.90
148;DHT22;142;50.652;12.216;2023-05-10T09:30:39;15.30;17.30
148;DHT22;142;50.652;12.216;2023-05-10T09:33:08;15.20;17.40
148;DHT22;142;50.652;12.216;2023-05-10T09:35:35;15.20;17.30
148;DHT22;142;50.652;12.216;2023-05-10T09:38:05;15.10;17.40
148;DHT22;142;50.652;12.216;2023-05-10T09:40:32;15.30;17.70
148;DHT22;142;50.652;12.216;2023-05-10T09:43:02;15.60;17.90
148;DHT22;142;50.652;12.216;2023-05-10T09:45:31;15.60;17.40
148;DHT22;142;50.652;12.216;2023-05-10T09:48:00;15.40;17.30
148;DHT22;142;50.652;12.216;2023-05-10T09:50:28;15.50;17.80
148;DHT22;142;50.652;12.216;2023-05-10T09:52:57;15.60;17.60
148;DHT22;142;50.652;12.216;2023-05-10T09:55:39;15.90;17.90
148;DHT22;142;50.652;12.216;2023-05-10T09:58:08;16.20;17.50
148;DHT22;142;50.652;12.216;2023-05-10T10:00:37;16.50;17.30
148;DHT22;142;50.652;12.216;2023-05-10T10:03:13;16.70;16.70
148;DHT22;142;50.652;12.216;2023-05-10T10:05:41;16.70;16.30
148;DHT22;142;50.652;12.216;2023-05-10T10:08:10;16.60;16.10
148;DHT22;142;50.652;12.216;2023-05-10T10:10:37;16.40;16.60
148;DHT22;142;50.652;12.216;2023-05-10T10:13:06;16.40;16.70
148;DHT22;142;50.652;12.216;2023-05-10T10:15:34;16.30;16.60
148;DHT22;142;50.652;12.216;2023-05-10T10:18:02;16.20;16.30
148;DHT22;142;50.652;12.216;2023-05-10T10:20:30;16.00;16.60
148;DHT22;142;50.652;12.216;2023-05-10T10:22:58;15.90;16.70
148;DHT22;142;50.652;12.216;2023-05-10T10:25:27;15.90;17.30
148;DHT22;142;50.652;12.216;2023-05-10T10:28:10;15.80;17.00
148;DHT22;142;50.652;12.216;2023-05-10T10:30:45;16.00;17.30
148;DHT22;142;50.652;12.216;2023-05-10T10:33:27;16.20;17.30
148;DHT22;142;50.652;12.216;2023-05-10T10:36:00;16.30;17.40
148;DHT22;142;50.652;12.216;2023-05-10T10:38:36;16.10;16.80
148;DHT22;142;50.652;12.216;2023-05-10T10:41:10;16.10;17.30
148;DHT22;142;50.652;12.216;2023-05-10T10:43:37;16.10;17.50
148;DHT22;142;50.652;12.216;2023-05-10T10:46:13;16.20;17.80
148;DHT22;142;50.652;12.216;2023-05-10T10:48:49;16.10;17.20
148;DHT22;142;50.652;12.216;2023-05-10T10:51:17;16.20;17.70
148;DHT22;142;50.652;12.216;2023-05-10T10:53:44;16.20;17.60
148;DHT22;142;50.652;12.216;2023-05-10T10:56:14;16.30;17.80
148;DHT22;142;50.652;12.216;2023-05-10T10:58:42;16.50;17.90
148;DHT22;142;50.652;12.216;2023-05-10T11:01:18;16.30;17.10
148;DHT22;142;50.652;12.216;2023-05-10T11:04:19;16.30;17.70
148;DHT22;142;50.652;12.216;2023-05-10T11:06:46;16.50;18.10
148;DHT22;142;50.652;12.216;2023-05-10T11:09:17;16.70;18.10
148;DHT22;142;50.652;12.216;2023-05-10T11:11:51;16.80;17.90
148;DHT22;142;50.652;12.216;2023-05-10T11:14:21;16.90;17.90
148;DHT22;142;50.652;12.216;2023-05-10T11:16:50;16.90;17.60
148;DHT22;142;50.652;12.216;2023-05-10T11:19:18;16.80;17.30
148;DHT22;142;50.652;12.216;2023-05-10T11:21:47;16.90;17.50
148;DHT22;142;50.652;12.216;2023-05-10T11:24:16;16.80;17.00
148;DHT22;142;50.652;12.216;2023-05-10T11:26:44;16.80;16.90
148;DHT22;142;50.652;12.216;2023-05-10T11:29:13;16.70;16.90
148;DHT22;142;50.652;12.216;2023-05-10T11:31:46;16.70;17.10
148;DHT22;142;50.652;12.216;2023-05-10T11:34:24;16.70;17.30
148;DHT22;142;50.652;12.216;2023-05-10T11:36:52;16.70;17.10
148;DHT22;142;50.652;12.216;2023-05-10T11:39:21;16.60;17.30
148;DHT22;142;50.652;12.216;2023-05-10T11:41:51;16.70;17.70
148;DHT22;142;50.652;12.216;2023-05-10T11:44:19;17.00;17.80
148;DHT22;142;50.652;12.216;2023-05-10T11:46:46;17.10;17.20
148;DHT22;142;50.652;12.216;2023-05-10T11:49:13;17.10;17.00
148;DHT22;142;50.652;12.216;2023-05-10T11:51:42;17.10;16.90
148;DHT22;142;50.652;12.216;2023-05-10T11:54:10;17.00;16.70
148;DHT22;142;50.652;12.216;2023-05-10T11:56:40;17.20;17.50
148;DHT22;142;50.652;12.216;2023-05-10T11:59:08;17.20;17.10
148;DHT22;142;50.652;12.216;2023-05-10T12:01:36;17.30;17.20
148;DHT22;142;50.652;12.216;2023-05-10T12:04:03;17.30;16.70
148;DHT22;142;50.652;12.216;2023-05-10T12:06:37;17.30;16.50
148;DHT22;142;50.652;12.216;2023-05-10T12:09:08;17.60;16.70
148;DHT22;142;50.652;12.216;2023-05-10T12:11:37;17.60;16.30
148;DHT22;142;50.652;12.216;2023-05-10T12:14:05;17.70;16.30
148;DHT22;142;50.652;12.216;2023-05-10T12:16:32;17.80;16.30
148;DHT22;142;50.652;12.216;2023-05-10T12:19:00;17.90;16.30
148;DHT22;142;50.652;12.216;2023-05-10T12:21:28;17.90;16.10
148;DHT22;142;50.652;12.216;2023-05-10T12:24:00;17.90;16.00
148;DHT22;142;50.652;12.216;2023-05-10T12:26:29;17.90;16.10
148;DHT22;142;50.652;12.216;2023-05-10T12:29:12;17.90;16.30
148;DHT22;142;50.652;12.216;2023-05-10T12:31:56;17.90;16.00
148;DHT22;142;50.652;12.216;2023-05-10T12:34:29;17.80;15.60
148;DHT22;142;50.652;12.216;2023-05-10T12:36:56;17.80;15.50
148;DHT22;142;50.652;12.216;2023-05-10T12:39:23;17.90;15.80
148;DHT22;142;50.652;12.216;2023-05-10T12:41:52;18.00;16.10
148;DHT22;142;50.652;12.216;2023-05-10T12:44:19;18.10;15.90
148;DHT22;142;50.652;12.216;2023-05-10T12:46:46;18.30;16.00
148;DHT22;142;50.652;12.216;2023-05-10T12:49:13;18.20;15.70
148;DHT22;142;50.652;12.216;2023-05-10T12:51:40;18.30;15.70
148;DHT22;142;50.652;12.216;2023-05-10T12:54:07;18.30;15.80
148;DHT22;142;50.652;12.216;2023-05-10T12:56:35;18.30;15.60
148;DHT22;142;50.652;12.216;2023-05-10T12:59:04;18.50;15.70
148;DHT22;142;50.652;12.216;2023-05-10T13:01:31;18.60;15.30
148;DHT22;142;50.652;12.216;2023-05-10T13:03:58;18.50;15.00
148;DHT22;142;50.652;12.216;2023-05-10T13:06:26;18.40;15.00
148;DHT22;142;50.652;12.216;2023-05-10T13:08:53;18.20;15.00
148;DHT22;142;50.652;12.216;2023-05-10T13:11:20;18.30;15.60
148;DHT22;142;50.652;12.216;2023-05-10T13:13:47;18.30;15.30
148;DHT22;142;50.652;12.216;2023-05-10T13:16:16;18.20;15.10
148;DHT22;142;50.652;12.216;2023-05-10T13:18:43;18.10;15.30
148;DHT22;142;50.652;12.216;2023-05-10T13:21:10;18.00;15.50
148;DHT22;142;50.652;12.216;2023-05-10T13:23:37;18.10;15.70
148;DHT22;142;50.652;12.216;2023-05-10T13:26:04;18.10;15.70
148;DHT22;142;50.652;12.216;2023-05-10T13:28:31;18.00;15.30
148;DHT22;142;50.652;12.216;2023-05-10T13:30:58;17.90;15.40
148;DHT22;142;50.652;12.216;2023-05-10T13:33:27;17.90;15.40
148;DHT22;142;50.652;12.216;2023-05-10T13:35:54;17.90;15.90
148;DHT22;142;50.652;12.216;2023-05-10T13:38:21;18.00;15.70
148;DHT22;142;50.652;12.216;2023-05-10T13:40:48;18.10;15.70
148;DHT22;142;50.652;12.216;2023-05-10T13:43:18;18.20;15.70
148;DHT22;142;50.652;12.216;2023-05-10T13:45:45;18.20;15.60
148;DHT22;142;50.652;12.216;2023-05-10T13:48:14;18.20;15.50
148;DHT22;142;50.652;12.216;2023-05-10T13:50:43;18.30;15.30
148;DHT22;142;50.652;12.216;2023-05-10T13:53:10;18.30;15.40
148;DHT22;142;50.652;12.216;2023-05-10T13:55:38;18.30;15.30
148;DHT22;142;50.652;12.216;2023-05-10T13:58:05;18.00;15.00
148;DHT22;142;50.652;12.216;2023-05-10T14:00:33;18.00;15.20
148;DHT22;142;50.652;12.216;2023-05-10T14:03:00;17.90;15.70
148;DHT22;142;50.652;12.216;2023-05-10T14:05:27;17.90;16.00
148;DHT22;142;50.652;12.216;2023-05-10T14:07:56;17.80;16.00
148;DHT22;142;50.652;12.216;2023-05-10T14:10:23;17.80;16.00
148;DHT22;142;50.652;12.216;2023-05-10T14:12:50;17.80;16.00
148;DHT22;142;50.652;12.216;2023-05-10T14:15:19;17.70;15.90
148;DHT22;142;50.652;12.216;2023-05-10T14:17:46;17.80;16.00
148;DHT22;142;50.652;12.216;2023-05-10T14:20:13;17.90;16.20
148;DHT22;142;50.652;12.216;2023-05-10T14:22:40;17.90;16.10
148;DHT22;142;50.652;12.216;2023-05-10T14:25:09;17.90;16.30
148;DHT22;142;50.652;12.216;2023-05-10T14:27:37;17.80;16.30
148;DHT22;142;50.652;12.216;2023-05-10T14:30:05;17.60;15.80
148;DHT22;142;50.652;12.216;2023-05-10T14:32:32;17.60;16.10
148;DHT22;142;50.652;12.216;2023-05-10T14:35:02;17.70;16.20
148;DHT22;142;50.652;12.216;2023-05-10T14:37:29;17.70;16.40
148;DHT22;142;50.652;12.216;2023-05-10T14:39:58;17.80;16.60
148;DHT22;142;50.652;12.216;2023-05-10T14:42:26;17.90;16.40
148;DHT22;142;50.652;12.216;2023-05-10T14:44:54;18.00;16.30
148;DHT22;142;50.652;12.216;2023-05-10T14:47:21;18.10;16.30
148;DHT22;142;50.652;12.216;2023-05-10T14:49:48;18.20;16.00
148;DHT22;142;50.652;12.216;2023-05-10T14:52:15;18.30;16.00
148;DHT22;142;50.652;12.216;2023-05-10T14:54:43;18.40;15.50
148;DHT22;142;50.652;12.216;2023-05-10T14:57:11;18.40;15.60
148;DHT22;142;50.652;12.216;2023-05-10T14:59:41;18.50;15.70
148;DHT22;142;50.652;12.216;2023-05-10T15:02:08;18.50;15.40
148;DHT22;142;50.652;12.216;2023-05-10T15:04:35;18.60;15.30
148;DHT22;142;50.652;12.216;2023-05-10T15:07:03;18.70;15.50
148;DHT22;142;50.652;12.216;2023-05-10T15:09:30;18.80;15.00
148;DHT22;142;50.652;12.216;2023-05-10T15:11:57;18.80;15.00
148;DHT22;142;50.652;12.216;2023-05-10T15:14:25;18.80;15.00
148;DHT22;142;50.652;12.216;2023-05-10T15:16:54;18.70;14.60
148;DHT22;142;50.652;12.216;2023-05-10T15:19:22;18.70;15.10
148;DHT22;142;50.652;12.216;2023-05-10T15:21:48;18.70;15.00
148;DHT22;142;50.652;12.216;2023-05-10T15:24:16;18.60;15.10
148;DHT22;142;50.652;12.216;2023-05-10T15:26:43;18.50;15.20
148;DHT22;142;50.652;12.216;2023-05-10T15:29:11;18.50;15.30
148;DHT22;142;50.652;12.216;2023-05-10T15:31:45;18.30;15.20
148;DHT22;142;50.652;12.216;2023-05-10T15:34:14;18.20;15.60
148;DHT22;142;50.652;12.216;2023-05-10T15:36:41;18.10;15.80
148;DHT22;142;50.652;12.216;2023-05-10T15:39:08;18.00;16.00
148;DHT22;142;50.652;12.216;2023-05-10T15:41:36;17.90;16.10
148;DHT22;142;50.652;12.216;2023-05-10T15:44:03;17.80;16.20
148;DHT22;142;50.652;12.216;2023-05-10T15:46:30;17.70;16.70
148;DHT22;142;50.652;12.216;2023-05-10T15:48:57;17.60;16.90
148;DHT22;142;50.652;12.216;2023-05-10T15:51:26;17.60;17.30
148;DHT22;142;50.652;12.216;2023-05-10T15:53:53;17.50;17.50
148;DHT22;142;50.652;12.216;2023-05-10T15:56:21;17.50;17.60
148;DHT22;142;50.652;12.216;2023-05-10T15:58:49;17.50;17.40
148;DHT22;142;50.652;12.216;2023-05-10T16:01:16;17.40;17.70
148;DHT22;142;50.652;12.216;2023-05-10T16:03:43;17.40;17.70
148;DHT22;142;50.652;12.216;2023-05-10T16:06:13;17.40;17.80
148;DHT22;142;50.652;12.216;2023-05-10T16:08:42;17.30;17.80
148;DHT22;142;50.652;12.216;2023-05-10T16:11:09;17.30;18.10
148;DHT22;142;50.652;12.216;2023-05-10T16:13:36;17.30;18.20
148;DHT22;142;50.652;12.216;2023-05-10T16:16:03;17.30;18.40
148;DHT22;142;50.652;12.216;2023-05-10T16:18:31;17.30;18.40
148;DHT22;142;50.652;12.216;2023-05-10T16:20:58;17.30;18.60
148;DHT22;142;50.652;12.216;2023-05-10T16:23:26;17.30;18.70
148;DHT22;142;50.652;12.216;2023-05-10T16:25:55;17.30;18.70
148;DHT22;142;50.652;12.216;2023-05-10T16:28:23;17.20;18.90
148;DHT22;142;50.652;12.216;2023-05-10T16:30:50;17.10;19.00